sensor_id;sensor_type;location;lat;lon;timestamp;pressure;altitude;pressure_sealevel;temperature;humidity
33795;BME280;51430;52.242;21.118;2023-03-04T00:01:35;99995.91;;;1.31;88.75
33795;BME280;51430;52.242;21.118;2023-03-04T00:04:23;100003.96;;;1.35;88.53
33795;BME280;51430;52.242;21.118;2023-03-04T00:07:10;99999.06;;;1.34;88.58
33795;BME280;51430;52.242;21.118;2023-03-04T00:10:06;99997.19;;;1.34;88.38
33795;BME280;51430;52.242;21.118;2023-03-04T00:12:53;100000.34;;;1.29;88.25
33795;BME280;51430;52.242;21.118;2023-03-04T00:15:40;99991.89;;;1.33;88.25
33795;BME280;51430;52.242;21.118;2023-03-04T00:18:29;99991.70;;;1.33;88.28
33795;BME280;51430;52.242;21.118;2023-03-04T00:21:19;99993.98;;;1.44;88.06
33795;BME280;51430;52.242;21.118;2023-03-04T00:24:11;99985.89;;;1.37;88.15
33795;BME280;51430;52.242;21.118;2023-03-04T00:27:01;99986.06;;;1.37;88.32
33795;BME280;51430;52.242;21.118;2023-03-04T00:29:47;99991.19;;;1.41;88.36
33795;BME280;51430;52.242;21.118;2023-03-04T00:32:36;99983.39;;;1.43;88.15
33795;BME280;51430;52.242;21.118;2023-03-04T00:35:23;99978.41;;;1.43;88.49
33795;BME280;51430;52.242;21.118;2023-03-04T00:38:13;99968.66;;;1.49;88.32
33795;BME280;51430;52.242;21.118;2023-03-04T00:41:02;99966.58;;;1.50;88.15
33795;BME280;51430;52.242;21.118;2023-03-04T00:43:49;99957.14;;;1.53;88.00
33795;BME280;51430;52.242;21.118;2023-03-04T00:46:36;99952.45;;;1.54;87.98
33795;BME280;51430;52.242;21.118;2023-03-04T00:49:24;99953.73;;;1.56;88.14
33795;BME280;51430;52.242;21.118;2023-03-04T00:52:14;99952.23;;;1.63;87.63
33795;BME280;51430;52.242;21.118;2023-03-04T00:55:05;99944.48;;;1.67;87.29
33795;BME280;51430;52.242;21.118;2023-03-04T00:57:54;99944.35;;;1.59;87.80
33795;BME280;51430;52.242;21.118;2023-03-04T01:00:41;99940.09;;;1.62;87.81
33795;BME280;51430;52.242;21.118;2023-03-04T01:03:28;99930.09;;;1.59;87.84
33795;BME280;51430;52.242;21.118;2023-03-04T01:06:21;99923.76;;;1.62;87.70
33795;BME280;51430;52.242;21.118;2023-03-04T01:09:08;99920.37;;;1.61;87.63
33795;BME280;51430;52.242;21.118;2023-03-04T01:11:59;99906.88;;;1.59;87.75
33795;BME280;51430;52.242;21.118;2023-03-04T01:14:46;99901.27;;;1.62;87.83
33795;BME280;51430;52.242;21.118;2023-03-04T01:17:32;99893.67;;;1.67;87.19
33795;BME280;51430;52.242;21.118;2023-03-04T01:20:21;99887.41;;;1.64;86.91
33795;BME280;51430;52.242;21.118;2023-03-04T01:23:08;99882.45;;;1.64;86.86
33795;BME280;51430;52.242;21.118;2023-03-04T01:25:54;99879.54;;;1.60;87.05
33795;BME280;51430;52.242;21.118;2023-03-04T01:28:44;99872.83;;;1.57;86.89
33795;BME280;51430;52.242;21.118;2023-03-04T01:31:33;99849.95;;;1.50;87.05
33795;BME280;51430;52.242;21.118;2023-03-04T01:34:22;99844.41;;;1.51;86.85
33795;BME280;51430;52.242;21.118;2023-03-04T01:37:09;99825.09;;;1.53;86.72
33795;BME280;51430;52.242;21.118;2023-03-04T01:39:59;99817.55;;;1.49;86.90
33795;BME280;51430;52.242;21.118;2023-03-04T01:42:53;99820.50;;;1.45;87.24
33795;BME280;51430;52.242;21.118;2023-03-04T01:45:43;99813.04;;;1.43;87.82
33795;BME280;51430;52.242;21.118;2023-03-04T01:48:36;99807.14;;;1.40;88.19
33795;BME280;51430;52.242;21.118;2023-03-04T01:51:23;99796.75;;;1.49;88.36
33795;BME280;51430;52.242;21.118;2023-03-04T01:54:11;99795.95;;;1.44;88.57
33795;BME280;51430;52.242;21.118;2023-03-04T01:56:59;99801.05;;;1.46;88.43
33795;BME280;51430;52.242;21.118;2023-03-04T02:00:26;99786.21;;;1.47;88.24
33795;BME280;51430;52.242;21.118;2023-03-04T02:03:15;99788.08;;;1.44;87.96
33795;BME280;51430;52.242;21.118;2023-03-04T02:06:05;99782.66;;;1.49;87.68
33795;BME280;51430;52.242;21.118;2023-03-04T02:08:52;99774.59;;;1.53;87.24
33795;BME280;51430;52.242;21.118;2023-03-04T02:11:38;99774.92;;;1.53;87.48
33795;BME280;51430;52.242;21.118;2023-03-04T02:14:27;99774.52;;;1.47;88.30
33795;BME280;51430;52.242;21.118;2023-03-04T02:17:14;99779.93;;;1.53;88.45
33795;BME280;51430;52.242;21.118;2023-03-04T02:23:33;99766.73;;;1.49;88.43
33795;BME280;51430;52.242;21.118;2023-03-04T02:26:22;99765.34;;;1.42;88.96
33795;BME280;51430;52.242;21.118;2023-03-04T02:29:10;99764.76;;;1.47;89.13
33795;BME280;51430;52.242;21.118;2023-03-04T02:32:00;99768.81;;;1.48;89.13
33795;BME280;51430;52.242;21.118;2023-03-04T02:39:48;99766.59;;;1.52;89.47
33795;BME280;51430;52.242;21.118;2023-03-04T02:42:36;99764.45;;;1.46;89.43
33795;BME280;51430;52.242;21.118;2023-03-04T02:45:43;99763.48;;;1.52;89.65
33795;BME280;51430;52.242;21.118;2023-03-04T02:48:31;99763.78;;;1.56;89.63
33795;BME280;51430;52.242;21.118;2023-03-04T02:51:18;99768.61;;;1.66;89.50
33795;BME280;51430;52.242;21.118;2023-03-04T02:54:17;99760.85;;;1.67;89.28
33795;BME280;51430;52.242;21.118;2023-03-04T02:57:08;99754.89;;;1.66;89.51
33795;BME280;51430;52.242;21.118;2023-03-04T02:59:55;99749.22;;;1.70;89.71
33795;BME280;51430;52.242;21.118;2023-03-04T03:02:46;99751.44;;;1.70;89.79
33795;BME280;51430;52.242;21.118;2023-03-04T03:05:33;99744.79;;;1.65;89.98
33795;BME280;51430;52.242;21.118;2023-03-04T03:08:39;99739.98;;;1.69;90.09
33795;BME280;51430;52.242;21.118;2023-03-04T03:11:26;99738.49;;;1.60;90.57
33795;BME280;51430;52.242;21.118;2023-03-04T03:14:15;99742.17;;;1.63;90.69
33795;BME280;51430;52.242;21.118;2023-03-04T03:17:04;99738.95;;;1.72;90.61
33795;BME280;51430;52.242;21.118;2023-03-04T03:19:51;99739.78;;;1.66;90.57
33795;BME280;51430;52.242;21.118;2023-03-04T03:22:39;99735.30;;;1.70;90.71
33795;BME280;51430;52.242;21.118;2023-03-04T03:25:25;99733.77;;;1.73;90.60
33795;BME280;51430;52.242;21.118;2023-03-04T03:28:12;99733.86;;;1.77;90.67
33795;BME280;51430;52.242;21.118;2023-03-04T03:31:01;99729.97;;;1.76;90.21
33795;BME280;51430;52.242;21.118;2023-03-04T03:33:49;99729.13;;;1.76;90.43
33795;BME280;51430;52.242;21.118;2023-03-04T03:36:36;99726.33;;;1.84;90.30
33795;BME280;51430;52.242;21.118;2023-03-04T03:39:22;99721.89;;;1.80;90.12
33795;BME280;51430;52.242;21.118;2023-03-04T03:42:09;99713.41;;;1.84;90.15
33795;BME280;51430;52.242;21.118;2023-03-04T03:44:56;99712.20;;;1.91;89.91
33795;BME280;51430;52.242;21.118;2023-03-04T03:47:44;99711.49;;;1.88;89.98
33795;BME280;51430;52.242;21.118;2023-03-04T03:50:31;99702.58;;;1.94;89.83
33795;BME280;51430;52.242;21.118;2023-03-04T03:53:19;99705.34;;;1.98;89.37
33795;BME280;51430;52.242;21.118;2023-03-04T03:56:06;99701.66;;;1.99;89.45
33795;BME280;51430;52.242;21.118;2023-03-04T03:58:52;99699.73;;;2.03;89.59
33795;BME280;51430;52.242;21.118;2023-03-04T04:01:39;99699.70;;;2.07;89.40
33795;BME280;51430;52.242;21.118;2023-03-04T04:04:28;99697.51;;;2.07;89.14
33795;BME280;51430;52.242;21.118;2023-03-04T04:07:15;99694.80;;;2.06;89.36
33795;BME280;51430;52.242;21.118;2023-03-04T04:10:04;99692.02;;;2.13;89.09
33795;BME280;51430;52.242;21.118;2023-03-04T04:12:51;99691.89;;;2.09;89.14
33795;BME280;51430;52.242;21.118;2023-03-04T04:15:38;99698.68;;;2.07;89.11
33795;BME280;51430;52.242;21.118;2023-03-04T04:18:25;99695.73;;;2.11;89.14
33795;BME280;51430;52.242;21.118;2023-03-04T04:21:14;99690.75;;;2.24;88.73
33795;BME280;51430;52.242;21.118;2023-03-04T04:24:01;99690.67;;;2.22;88.57
33795;BME280;51430;52.242;21.118;2023-03-04T04:26:48;99686.77;;;2.30;88.25
33795;BME280;51430;52.242;21.118;2023-03-04T04:29:34;99690.15;;;2.32;87.94
33795;BME280;51430;52.242;21.118;2023-03-04T04:32:21;99685.05;;;2.34;87.86
33795;BME280;51430;52.242;21.118;2023-03-04T04:35:08;99681.46;;;2.37;87.84
33795;BME280;51430;52.242;21.118;2023-03-04T04:37:55;99680.41;;;2.40;87.59
33795;BME280;51430;52.242;21.118;2023-03-04T04:40:44;99687.50;;;2.46;87.26
33795;BME280;51430;52.242;21.118;2023-03-04T04:43:31;99678.27;;;2.44;87.06
33795;BME280;51430;52.242;21.118;2023-03-04T04:46:17;99678.98;;;2.45;86.93
33795;BME280;51430;52.242;21.118;2023-03-04T04:49:05;99677.48;;;2.47;87.00
33795;BME280;51430;52.242;21.118;2023-03-04T04:51:52;99679.27;;;2.45;86.86
33795;BME280;51430;52.242;21.118;2023-03-04T04:54:38;99676.17;;;2.45;87.04
33795;BME280;51430;52.242;21.118;2023-03-04T04:57:25;99672.35;;;2.49;86.68
33795;BME280;51430;52.242;21.118;2023-03-04T05:00:12;99672.52;;;2.46;86.63
33795;BME280;51430;52.242;21.118;2023-03-04T05:02:59;99664.09;;;2.43;86.61
33795;BME280;51430;52.242;21.118;2023-03-04T05:05:46;99668.75;;;2.43;86.71
33795;BME280;51430;52.242;21.118;2023-03-04T05:08:33;99666.21;;;2.42;86.69
33795;BME280;51430;52.242;21.118;2023-03-04T05:11:20;99660.27;;;2.47;86.50
33795;BME280;51430;52.242;21.118;2023-03-04T05:14:09;99658.55;;;2.50;86.47
33795;BME280;51430;52.242;21.118;2023-03-04T05:16:55;99660.56;;;2.54;86.28
33795;BME280;51430;52.242;21.118;2023-03-04T05:19:42;99652.44;;;2.52;86.23
33795;BME280;51430;52.242;21.118;2023-03-04T05:25:20;99654.19;;;2.60;86.14
33795;BME280;51430;52.242;21.118;2023-03-04T05:28:12;99648.19;;;2.66;86.05
33795;BME280;51430;52.242;21.118;2023-03-04T05:43:22;99646.77;;;2.67;86.14
33795;BME280;51430;52.242;21.118;2023-03-04T05:46:37;99641.44;;;2.70;86.20
33795;BME280;51430;52.242;21.118;2023-03-04T05:49:41;99640.73;;;2.70;86.23
33795;BME280;51430;52.242;21.118;2023-03-04T05:53:27;99637.73;;;2.68;86.48
33795;BME280;51430;52.242;21.118;2023-03-04T05:57:14;99636.39;;;2.71;86.56
33795;BME280;51430;52.242;21.118;2023-03-04T06:00:46;99628.70;;;2.61;86.82
33795;BME280;51430;52.242;21.118;2023-03-04T06:03:57;99618.90;;;2.70;86.44
33795;BME280;51430;52.242;21.118;2023-03-04T06:07:04;99610.28;;;2.64;86.87
33795;BME280;51430;52.242;21.118;2023-03-04T06:41:41;99591.48;;;2.92;85.46
33795;BME280;51430;52.242;21.118;2023-03-04T06:45:28;99598.23;;;2.98;85.26
33795;BME280;51430;52.242;21.118;2023-03-04T06:48:20;99598.36;;;2.95;85.51
33795;BME280;51430;52.242;21.118;2023-03-04T06:51:43;99597.76;;;2.97;85.44
33795;BME280;51430;52.242;21.118;2023-03-04T06:55:03;99601.59;;;2.96;85.83
33795;BME280;51430;52.242;21.118;2023-03-04T06:58:12;99602.46;;;3.05;85.43
33795;BME280;51430;52.242;21.118;2023-03-04T07:01:22;99605.73;;;3.05;85.00
33795;BME280;51430;52.242;21.118;2023-03-04T07:04:12;99606.34;;;3.00;85.31
33795;BME280;51430;52.242;21.118;2023-03-04T07:07:00;99603.91;;;3.03;85.44
33795;BME280;51430;52.242;21.118;2023-03-04T07:23:35;99606.80;;;3.31;84.65
33795;BME280;51430;52.242;21.118;2023-03-04T07:27:08;99597.23;;;3.29;84.39
33795;BME280;51430;52.242;21.118;2023-03-04T07:30:44;99596.24;;;3.17;84.56
33795;BME280;51430;52.242;21.118;2023-03-04T07:34:13;99595.33;;;3.12;84.88
33795;BME280;51430;52.242;21.118;2023-03-04T07:41:41;99594.00;;;3.02;85.19
33795;BME280;51430;52.242;21.118;2023-03-04T07:44:31;99588.60;;;3.03;85.26
33795;BME280;51430;52.242;21.118;2023-03-04T07:47:57;99583.00;;;3.05;85.06
33795;BME280;51430;52.242;21.118;2023-03-04T07:52:32;99574.16;;;3.12;84.85
33795;BME280;51430;52.242;21.118;2023-03-04T07:56:27;99568.95;;;3.10;84.92
33795;BME280;51430;52.242;21.118;2023-03-04T07:59:33;99567.83;;;3.14;84.65
33795;BME280;51430;52.242;21.118;2023-03-04T08:02:23;99566.51;;;3.22;84.18
33795;BME280;51430;52.242;21.118;2023-03-04T08:06:13;99562.92;;;3.24;83.74
33795;BME280;51430;52.242;21.118;2023-03-04T08:09:35;99561.39;;;3.24;83.83
33795;BME280;51430;52.242;21.118;2023-03-04T08:13:53;99562.02;;;3.28;83.64
33795;BME280;51430;52.242;21.118;2023-03-04T08:17:39;99556.77;;;3.32;83.75
33795;BME280;51430;52.242;21.118;2023-03-04T08:25:59;99553.05;;;3.34;83.20
33795;BME280;51430;52.242;21.118;2023-03-04T08:30:29;99551.45;;;3.29;83.50
33795;BME280;51430;52.242;21.118;2023-03-04T08:34:28;99555.93;;;3.26;83.18
33795;BME280;51430;52.242;21.118;2023-03-04T08:37:37;99553.48;;;3.29;83.03
33795;BME280;51430;52.242;21.118;2023-03-04T08:57:13;99554.13;;;3.56;82.28
33795;BME280;51430;52.242;21.118;2023-03-04T09:01:35;99548.29;;;3.58;82.37
33795;BME280;51430;52.242;21.118;2023-03-04T09:05:11;99545.85;;;3.56;82.33
33795;BME280;51430;52.242;21.118;2023-03-04T09:07:58;99547.70;;;3.42;82.53
33795;BME280;51430;52.242;21.118;2023-03-04T09:10:51;99536.74;;;3.53;82.52
33795;BME280;51430;52.242;21.118;2023-03-04T09:13:40;99534.20;;;3.60;82.45
33795;BME280;51430;52.242;21.118;2023-03-04T09:16:27;99530.95;;;3.82;81.83
33795;BME280;51430;52.242;21.118;2023-03-04T09:21:09;99526.47;;;3.96;81.13
33795;BME280;51430;52.242;21.118;2023-03-04T09:25:23;99519.98;;;4.01;81.05
33795;BME280;51430;52.242;21.118;2023-03-04T09:29:07;99521.65;;;3.99;80.97
33795;BME280;51430;52.242;21.118;2023-03-04T09:48:54;99516.16;;;4.01;81.50
33795;BME280;51430;52.242;21.118;2023-03-04T09:55:38;99509.25;;;4.04;81.15
33795;BME280;51430;52.242;21.118;2023-03-04T10:02:29;99509.37;;;3.72;82.66
33795;BME280;51430;52.242;21.118;2023-03-04T10:05:30;99508.15;;;3.75;82.69
33795;BME280;51430;52.242;21.118;2023-03-04T10:08:59;99502.52;;;3.77;82.70
33795;BME280;51430;52.242;21.118;2023-03-04T10:12:21;99496.34;;;3.92;82.68
33795;BME280;51430;52.242;21.118;2023-03-04T10:28:17;99485.52;;;3.87;83.12
33795;BME280;51430;52.242;21.118;2023-03-04T10:35:30;99475.77;;;4.16;82.21
33795;BME280;51430;52.242;21.118;2023-03-04T10:39:59;99472.50;;;4.18;81.84
33795;BME280;51430;52.242;21.118;2023-03-04T10:43:20;99467.73;;;4.06;82.61
33795;BME280;51430;52.242;21.118;2023-03-04T10:47:26;99458.39;;;3.79;84.54
33795;BME280;51430;52.242;21.118;2023-03-04T10:51:19;99454.33;;;3.62;86.53
33795;BME280;51430;52.242;21.118;2023-03-04T10:55:19;99452.88;;;3.57;88.57
33795;BME280;51430;52.242;21.118;2023-03-04T10:58:29;99449.96;;;3.57;88.96
33795;BME280;51430;52.242;21.118;2023-03-04T11:01:20;99449.36;;;3.59;89.25
33795;BME280;51430;52.242;21.118;2023-03-04T11:06:21;99447.29;;;3.73;89.59
33795;BME280;51430;52.242;21.118;2023-03-04T11:23:49;99436.65;;;3.93;89.33
33795;BME280;51430;52.242;21.118;2023-03-04T13:43:46;99448.77;;;5.66;77.97
33795;BME280;51430;52.242;21.118;2023-03-04T13:56:33;99406.61;;;3.12;89.87
33795;BME280;51430;52.242;21.118;2023-03-04T13:59:54;99401.13;;;3.42;88.41
33795;BME280;51430;52.242;21.118;2023-03-04T14:14:41;99381.21;;;4.15;83.68
33795;BME280;51430;52.242;21.118;2023-03-04T14:17:57;99390.46;;;8.56;72.52
33795;BME280;51430;52.242;21.118;2023-03-04T14:21:34;99391.90;;;10.67;59.32
33795;BME280;51430;52.242;21.118;2023-03-04T14:24:27;99397.65;;;10.97;52.84
33795;BME280;51430;52.242;21.118;2023-03-04T14:28:24;99392.34;;;11.25;49.92
33795;BME280;51430;52.242;21.118;2023-03-04T14:31:16;99395.91;;;12.86;47.87
33795;BME280;51430;52.242;21.118;2023-03-04T14:34:04;99388.67;;;14.21;43.92
33795;BME280;51430;52.242;21.118;2023-03-04T14:36:52;99392.52;;;14.75;42.63
33795;BME280;51430;52.242;21.118;2023-03-04T14:39:42;99403.78;;;15.74;40.17
33795;BME280;51430;52.242;21.118;2023-03-04T14:43:18;99414.85;;;16.13;39.07
33795;BME280;51430;52.242;21.118;2023-03-04T14:46:42;99419.42;;;16.38;39.06
33795;BME280;51430;52.242;21.118;2023-03-04T14:50:21;99429.27;;;15.53;40.00
33795;BME280;51430;52.242;21.118;2023-03-04T14:53:31;99433.52;;;14.31;42.45
33795;BME280;51430;52.242;21.118;2023-03-04T14:57:42;99437.23;;;12.83;46.21
33795;BME280;51430;52.242;21.118;2023-03-04T15:01:39;99436.77;;;9.29;50.99
33795;BME280;51430;52.242;21.118;2023-03-04T15:06:21;99428.93;;;7.42;56.07
33795;BME280;51430;52.242;21.118;2023-03-04T15:11:20;99423.13;;;6.32;59.36
33795;BME280;51430;52.242;21.118;2023-03-04T15:19:02;99437.72;;;5.35;62.49
33795;BME280;51430;52.242;21.118;2023-03-04T15:21:47;99442.00;;;4.98;60.78
33795;BME280;51430;52.242;21.118;2023-03-04T15:24:33;99446.29;;;4.75;58.40
33795;BME280;51430;52.242;21.118;2023-03-04T15:27:20;99449.52;;;4.58;57.81
33795;BME280;51430;52.242;21.118;2023-03-04T15:30:19;99457.90;;;4.52;57.07
33795;BME280;51430;52.242;21.118;2023-03-04T15:33:07;99472.84;;;4.47;57.34
33795;BME280;51430;52.242;21.118;2023-03-04T15:35:56;99492.98;;;4.29;57.15
33795;BME280;51430;52.242;21.118;2023-03-04T15:38:50;99503.24;;;4.12;56.17
33795;BME280;51430;52.242;21.118;2023-03-04T15:41:36;99517.60;;;3.78;56.12
33795;BME280;51430;52.242;21.118;2023-03-04T15:44:21;99531.14;;;3.71;57.54
33795;BME280;51430;52.242;21.118;2023-03-04T15:47:10;99537.42;;;3.53;58.34
33795;BME280;51430;52.242;21.118;2023-03-04T15:49:59;99548.91;;;3.48;59.43
33795;BME280;51430;52.242;21.118;2023-03-04T15:52:44;99554.65;;;3.33;58.72
33795;BME280;51430;52.242;21.118;2023-03-04T15:55:31;99558.20;;;3.28;58.73
33795;BME280;51430;52.242;21.118;2023-03-04T15:58:17;99560.90;;;3.18;58.77
33795;BME280;51430;52.242;21.118;2023-03-04T16:01:02;99569.16;;;3.06;58.13
33795;BME280;51430;52.242;21.118;2023-03-04T16:05:35;99579.92;;;2.77;58.35
33795;BME280;51430;52.242;21.118;2023-03-04T16:09:34;99594.36;;;2.47;57.97
33795;BME280;51430;52.242;21.118;2023-03-04T16:13:32;99603.02;;;2.40;57.62
33795;BME280;51430;52.242;21.118;2023-03-04T16:18:25;99612.39;;;2.23;56.49
33795;BME280;51430;52.242;21.118;2023-03-04T16:21:19;99620.48;;;2.10;57.09
33795;BME280;51430;52.242;21.118;2023-03-04T16:24:31;99623.85;;;2.11;56.25
33795;BME280;51430;52.242;21.118;2023-03-04T16:27:38;99630.47;;;2.10;56.36
33795;BME280;51430;52.242;21.118;2023-03-04T16:33:38;99646.71;;;1.98;53.66
33795;BME280;51430;52.242;21.118;2023-03-04T16:37:07;99650.59;;;1.90;52.44
33795;BME280;51430;52.242;21.118;2023-03-04T16:40:44;99652.45;;;1.74;51.26
33795;BME280;51430;52.242;21.118;2023-03-04T16:46:49;99660.58;;;1.70;51.55
33795;BME280;51430;52.242;21.118;2023-03-04T16:50:48;99663.69;;;1.59;52.41
33795;BME280;51430;52.242;21.118;2023-03-04T16:54:03;99670.67;;;1.43;52.56
33795;BME280;51430;52.242;21.118;2023-03-04T16:57:16;99671.88;;;1.50;51.48
33795;BME280;51430;52.242;21.118;2023-03-04T17:01:03;99683.95;;;1.42;50.19
33795;BME280;51430;52.242;21.118;2023-03-04T17:04:12;99691.46;;;1.43;50.47
33795;BME280;51430;52.242;21.118;2023-03-04T17:07:08;99695.77;;;1.46;50.10
33795;BME280;51430;52.242;21.118;2023-03-04T17:09:57;99697.91;;;1.44;49.71
33795;BME280;51430;52.242;21.118;2023-03-04T17:13:06;99709.93;;;1.44;50.23
33795;BME280;51430;52.242;21.118;2023-03-04T17:18:34;99714.75;;;1.41;49.49
33795;BME280;51430;52.242;21.118;2023-03-04T17:22:46;99724.43;;;1.22;50.07
33795;BME280;51430;52.242;21.118;2023-03-04T17:26:38;99734.23;;;1.04;50.11
33795;BME280;51430;52.242;21.118;2023-03-04T17:30:11;99739.90;;;1.08;49.63
33795;BME280;51430;52.242;21.118;2023-03-04T17:33:18;99743.68;;;1.07;50.14
33795;BME280;51430;52.242;21.118;2023-03-04T17:36:43;99744.95;;;1.09;49.76
33795;BME280;51430;52.242;21.118;2023-03-04T17:44:47;99756.99;;;0.98;48.74
33795;BME280;51430;52.242;21.118;2023-03-04T18:00:05;99758.73;;;0.83;49.64
33795;BME280;51430;52.242;21.118;2023-03-04T18:03:53;99762.48;;;0.57;49.96
33795;BME280;51430;52.242;21.118;2023-03-04T18:06:43;99765.94;;;0.49;50.25
33795;BME280;51430;52.242;21.118;2023-03-04T18:09:45;99763.58;;;0.52;50.19
33795;BME280;51430;52.242;21.118;2023-03-04T18:13:13;99774.81;;;0.42;49.74
33795;BME280;51430;52.242;21.118;2023-03-04T18:17:14;99772.84;;;0.28;50.43
33795;BME280;51430;52.242;21.118;2023-03-04T18:20:57;99778.04;;;0.31;50.77
33795;BME280;51430;52.242;21.118;2023-03-04T18:24:24;99785.63;;;0.22;50.06
33795;BME280;51430;52.242;21.118;2023-03-04T18:28:12;99791.21;;;0.24;50.50
33795;BME280;51430;52.242;21.118;2023-03-04T18:32:22;99800.08;;;0.17;51.17
33795;BME280;51430;52.242;21.118;2023-03-04T18:36:10;99803.27;;;0.22;51.09
33795;BME280;51430;52.242;21.118;2023-03-04T18:39:33;99809.40;;;0.11;51.96
33795;BME280;51430;52.242;21.118;2023-03-04T18:42:20;99816.59;;;-0.02;51.79
33795;BME280;51430;52.242;21.118;2023-03-04T18:45:29;99815.49;;;0.04;51.79
33795;BME280;51430;52.242;21.118;2023-03-04T19:56:53;99866.51;;;-0.72;51.74
33795;BME280;51430;52.242;21.118;2023-03-04T20:23:35;99874.08;;;-1.00;52.26
